createdAt,value
2023-05-18T00:01:00.488Z,14.87
2023-05-18T00:02:34.282Z,14.88
2023-05-18T00:04:08.459Z,14.86
2023-05-18T00:05:43.016Z,14.83
2023-05-18T00:07:15.649Z,14.84
2023-05-18T00:08:48.856Z,14.84
2023-05-18T00:10:22.288Z,14.85
2023-05-18T00:11:54.893Z,14.88
2023-05-18T00:13:28.147Z,14.87
2023-05-18T00:15:01.312Z,14.87
2023-05-18T00:16:36.005Z,14.84
2023-05-18T00:18:10.754Z,14.81
2023-05-18T00:19:46.979Z,14.76
2023-05-18T00:21:20.525Z,14.75
2023-05-18T00:22:54.155Z,14.76
2023-05-18T00:24:27.670Z,14.75
2023-05-18T00:26:01.672Z,14.78
2023-05-18T00:27:34.851Z,14.82
2023-05-18T00:29:08.812Z,14.85
2023-05-18T00:30:41.379Z,14.82
2023-05-18T00:32:16.001Z,14.78
2023-05-18T00:33:48.339Z,14.77
2023-05-18T00:35:21.754Z,14.76
2023-05-18T00:36:54.151Z,14.77
2023-05-18T00:38:27.354Z,14.77
2023-05-18T00:39:59.485Z,14.75
2023-05-18T00:41:33.239Z,14.77
2023-05-18T00:43:06.947Z,14.77
2023-05-18T00:44:39.208Z,14.76
2023-05-18T00:46:13.113Z,14.78
2023-05-18T00:47:47.446Z,14.74
2023-05-18T00:49:21.373Z,14.76
2023-05-18T00:50:55.578Z,14.77
2023-05-18T00:52:29.608Z,14.78
2023-05-18T00:54:03.809Z,14.74
2023-05-18T00:55:37.687Z,14.74
2023-05-18T00:57:10.059Z,14.74
2023-05-18T00:58:44.039Z,14.75
2023-05-18T01:00:17.549Z,14.78
2023-05-18T01:01:51.259Z,14.75
2023-05-18T01:03:26.279Z,14.74
2023-05-18T01:05:00.749Z,14.83
2023-05-18T01:06:36.458Z,14.87
2023-05-18T01:08:10.199Z,14.90
2023-05-18T01:09:43.838Z,14.89
2023-05-18T01:11:26.165Z,14.93
2023-05-18T01:13:04.115Z,14.93
2023-05-18T01:14:42.850Z,14.94
2023-05-18T01:16:24.255Z,14.93
2023-05-18T01:18:06.275Z,14.95
2023-05-18T01:20:07.271Z,14.96
2023-05-18T01:21:58.878Z,14.94
2023-05-18T01:23:55.009Z,14.87
2023-05-18T01:25:33.932Z,14.87
2023-05-18T01:27:09.975Z,14.86
2023-05-18T01:28:46.396Z,14.86
2023-05-18T01:30:20.528Z,14.85
2023-05-18T01:31:54.394Z,14.90
2023-05-18T01:33:26.854Z,14.95
2023-05-18T01:35:00.059Z,14.93
2023-05-18T01:36:34.244Z,14.93
2023-05-18T01:38:06.677Z,14.93
2023-05-18T01:39:40.860Z,14.93
2023-05-18T01:41:19.343Z,14.93
2023-05-18T01:42:59.548Z,14.90
2023-05-18T01:44:38.195Z,14.85
2023-05-18T01:46:18.290Z,14.83
2023-05-18T01:47:57.715Z,14.87
2023-05-18T01:49:34.974Z,14.87
2023-05-18T01:51:12.683Z,14.88
2023-05-18T01:52:52.689Z,14.86
2023-05-18T01:54:27.981Z,14.86
2023-05-18T01:56:02.519Z,14.88
2023-05-18T01:57:39.329Z,14.89
2023-05-18T01:59:15.166Z,14.88
2023-05-18T02:00:48.428Z,14.87
2023-05-18T02:02:21.977Z,14.88
2023-05-18T02:03:55.491Z,14.83
2023-05-18T02:05:28.003Z,14.82
2023-05-18T02:07:01.312Z,14.82
2023-05-18T02:08:33.820Z,14.79
2023-05-18T02:10:08.038Z,14.74
2023-05-18T02:11:41.496Z,14.74
2023-05-18T02:13:13.710Z,14.73
2023-05-18T02:14:48.618Z,14.77
2023-05-18T02:16:22.139Z,14.82
2023-05-18T02:17:58.287Z,14.86
2023-05-18T02:19:31.689Z,14.91
2023-05-18T02:21:05.193Z,14.94
2023-05-18T02:22:38.876Z,14.98
2023-05-18T02:24:12.582Z,14.92
2023-05-18T02:25:46.826Z,14.88
2023-05-18T02:27:20.441Z,14.83
2023-05-18T02:28:55.082Z,14.81
2023-05-18T02:30:33.278Z,14.76
2023-05-18T02:32:06.854Z,14.78
2023-05-18T02:33:40.265Z,14.79
2023-05-18T02:35:13.951Z,14.75
2023-05-18T02:36:48.896Z,14.75
2023-05-18T02:38:22.500Z,14.81
2023-05-18T02:39:55.834Z,14.82
2023-05-18T02:41:29.083Z,14.83
2023-05-18T02:43:01.673Z,14.85
2023-05-18T02:44:35.813Z,14.86
2023-05-18T02:46:09.706Z,14.89
2023-05-18T02:47:44.232Z,14.91
2023-05-18T02:49:16.869Z,14.91
2023-05-18T02:50:50.323Z,14.93
2023-05-18T02:52:22.709Z,14.90
2023-05-18T02:53:57.657Z,14.91
2023-05-18T02:55:31.793Z,14.92
2023-05-18T02:57:14.139Z,14.93
2023-05-18T02:59:09.000Z,14.88
2023-05-18T03:00:44.866Z,14.88
2023-05-18T03:02:23.064Z,14.90
2023-05-18T03:03:57.941Z,14.91
2023-05-18T03:05:32.407Z,14.94
2023-05-18T03:07:08.118Z,14.99
2023-05-18T03:08:42.650Z,14.96
2023-05-18T03:10:17.428Z,15.00
2023-05-18T03:11:51.877Z,15.04
2023-05-18T03:13:24.517Z,15.07
2023-05-18T03:14:57.704Z,15.10
2023-05-18T03:16:30.973Z,15.09
2023-05-18T03:18:06.306Z,15.11
2023-05-18T03:19:39.458Z,15.06
2023-05-18T03:21:13.765Z,15.04
2023-05-18T03:22:47.101Z,15.08
2023-05-18T03:24:20.717Z,15.09
2023-05-18T03:25:55.833Z,15.08
2023-05-18T03:27:32.006Z,15.09
2023-05-18T03:29:05.297Z,15.12
2023-05-18T03:30:38.881Z,15.12
2023-05-18T03:32:11.593Z,15.12
2023-05-18T03:33:46.447Z,15.13
2023-05-18T03:35:19.641Z,15.14
2023-05-18T03:36:54.934Z,15.14
2023-05-18T03:38:27.160Z,15.12
2023-05-18T03:40:14.644Z,15.09
2023-05-18T03:41:49.330Z,14.99
2023-05-18T03:43:25.453Z,15.03
2023-05-18T03:44:58.691Z,15.03
2023-05-18T03:46:32.278Z,15.06
2023-05-18T03:48:05.014Z,15.09
2023-05-18T03:49:39.973Z,15.14
2023-05-18T03:51:13.495Z,15.16
2023-05-18T03:52:46.782Z,15.19
2023-05-18T03:54:19.983Z,15.17
2023-05-18T03:55:53.486Z,15.21
2023-05-18T03:57:25.951Z,15.26
2023-05-18T03:59:00.292Z,15.26
2023-05-18T04:00:32.871Z,15.28
2023-05-18T04:02:07.925Z,15.29
2023-05-18T04:03:42.726Z,15.30
2023-05-18T04:05:18.266Z,15.31
2023-05-18T04:06:53.179Z,15.35
2023-05-18T04:08:27.047Z,15.38
2023-05-18T04:10:00.242Z,15.44
2023-05-18T04:11:32.601Z,15.50
2023-05-18T04:13:05.926Z,15.58
2023-05-18T04:14:42.378Z,15.66
2023-05-18T04:16:15.968Z,15.72
2023-05-18T04:17:51.906Z,15.71
2023-05-18T04:19:25.208Z,15.82
2023-05-18T04:21:00.557Z,15.88
2023-05-18T04:22:36.356Z,15.94
2023-05-18T04:24:14.576Z,16.03
2023-05-18T04:25:49.460Z,16.07
2023-05-18T04:27:23.042Z,16.14
2023-05-18T04:29:00.253Z,16.20
2023-05-18T04:30:35.592Z,16.33
2023-05-18T04:32:10.955Z,16.41
2023-05-18T04:33:47.452Z,16.54
2023-05-18T04:35:20.656Z,16.60
2023-05-18T04:36:54.616Z,16.67
2023-05-18T04:38:27.774Z,16.73
2023-05-18T04:40:02.407Z,16.78
2023-05-18T04:41:37.916Z,16.88
2023-05-18T04:43:11.874Z,16.85
2023-05-18T04:44:45.274Z,16.88
2023-05-18T04:46:18.890Z,16.88
2023-05-18T04:47:54.616Z,16.89
2023-05-18T04:49:28.426Z,16.93
2023-05-18T04:51:01.628Z,17.10
2023-05-18T04:52:37.173Z,17.29
2023-05-18T04:54:10.382Z,17.42
2023-05-18T04:55:42.872Z,17.31
2023-05-18T04:57:18.157Z,17.42
2023-05-18T04:58:51.669Z,17.55
2023-05-18T05:00:24.754Z,17.70
2023-05-18T05:01:58.310Z,17.84
2023-05-18T05:03:32.768Z,17.92
2023-05-18T05:05:05.908Z,17.92
2023-05-18T05:06:39.154Z,17.87
2023-05-18T05:08:14.123Z,17.83
2023-05-18T05:09:46.373Z,17.84
2023-05-18T05:11:19.948Z,17.78
2023-05-18T05:12:53.865Z,17.73
2023-05-18T05:14:26.201Z,17.70
2023-05-18T05:15:59.384Z,17.64
2023-05-18T05:17:33.100Z,17.68
2023-05-18T05:19:06.831Z,17.60
2023-05-18T05:20:40.572Z,17.50
2023-05-18T05:22:13.279Z,17.54
2023-05-18T05:23:48.129Z,17.54
2023-05-18T05:25:22.226Z,17.50
2023-05-18T05:26:56.535Z,17.59
2023-05-18T05:28:29.693Z,17.68
2023-05-18T05:30:02.115Z,17.80
2023-05-18T05:31:37.103Z,17.85
2023-05-18T05:33:09.818Z,17.89
2023-05-18T05:34:47.002Z,17.98
2023-05-18T05:36:21.900Z,17.96
2023-05-18T05:37:55.084Z,18.01
2023-05-18T05:39:29.992Z,18.13
2023-05-18T05:41:05.380Z,18.16
2023-05-18T05:42:39.097Z,18.17
2023-05-18T05:44:13.958Z,18.27
2023-05-18T05:45:47.622Z,18.29
2023-05-18T05:47:20.051Z,18.35
2023-05-18T05:48:53.527Z,18.32
2023-05-18T05:50:28.725Z,18.32
2023-05-18T05:52:05.522Z,18.30
2023-05-18T05:53:39.104Z,18.31
2023-05-18T05:55:13.985Z,18.27
2023-05-18T05:56:47.248Z,18.27
2023-05-18T05:58:22.812Z,18.28
2023-05-18T06:00:06.454Z,18.23
2023-05-18T06:01:54.414Z,18.21
2023-05-18T06:03:29.521Z,18.20
2023-05-18T06:05:06.515Z,18.24
2023-05-18T06:06:40.571Z,18.30
2023-05-18T06:08:16.034Z,18.42
2023-05-18T06:09:50.368Z,18.50
2023-05-18T06:11:27.212Z,18.41
2023-05-18T06:13:00.636Z,18.44
2023-05-18T06:14:58.117Z,18.47
2023-05-18T06:16:31.481Z,18.56
2023-05-18T06:18:06.492Z,18.59
2023-05-18T06:19:39.784Z,18.67
2023-05-18T06:21:13.187Z,18.73
2023-05-18T06:22:46.960Z,18.72
2023-05-18T06:24:30.905Z,19.07
2023-05-18T06:26:23.356Z,19.19
2023-05-18T06:28:24.185Z,19.50
2023-05-18T06:30:05.636Z,19.43
2023-05-18T06:31:48.084Z,19.57
2023-05-18T06:33:28.546Z,19.46
2023-05-18T06:35:01.904Z,19.50
2023-05-18T06:36:35.081Z,19.55
2023-05-18T06:38:08.732Z,19.52
2023-05-18T06:39:41.863Z,19.60
2023-05-18T06:41:15.400Z,19.76
2023-05-18T06:42:48.951Z,19.76
2023-05-18T06:44:46.214Z,19.59
2023-05-18T06:46:26.621Z,19.47
2023-05-18T06:48:07.423Z,19.48
2023-05-18T06:49:40.791Z,19.40
2023-05-18T06:51:16.330Z,19.36
2023-05-18T06:52:51.587Z,19.38
2023-05-18T06:54:24.831Z,19.40
2023-05-18T06:55:58.025Z,19.45
2023-05-18T06:57:32.023Z,19.56
2023-05-18T06:59:05.141Z,19.65
2023-05-18T07:00:40.902Z,19.81
2023-05-18T07:02:15.113Z,19.94
2023-05-18T07:03:49.111Z,20.06
2023-05-18T07:05:23.386Z,20.14
2023-05-18T07:06:57.039Z,20.03
2023-05-18T07:08:30.492Z,20.04
2023-05-18T07:10:04.908Z,20.10
2023-05-18T07:11:38.068Z,20.00
2023-05-18T07:13:11.252Z,19.98
2023-05-18T07:14:44.448Z,19.89
2023-05-18T07:16:19.311Z,19.96
2023-05-18T07:17:52.545Z,20.06
2023-05-18T07:19:26.020Z,20.08
2023-05-18T07:20:59.274Z,20.17
2023-05-18T07:22:32.779Z,20.25
2023-05-18T07:24:06.738Z,20.18
2023-05-18T07:25:39.992Z,20.30
2023-05-18T07:27:13.199Z,20.36
2023-05-18T07:28:47.962Z,20.39
2023-05-18T07:30:21.250Z,20.51
2023-05-18T07:31:55.954Z,20.63
2023-05-18T07:33:29.322Z,20.79
2023-05-18T07:35:03.016Z,20.85
2023-05-18T07:36:36.340Z,20.87
2023-05-18T07:38:09.585Z,20.86
2023-05-18T07:39:42.886Z,20.92
2023-05-18T07:41:16.391Z,20.97
2023-05-18T07:42:49.572Z,20.62
2023-05-18T07:44:22.836Z,20.43
2023-05-18T07:45:55.976Z,20.47
2023-05-18T07:47:31.167Z,20.59
2023-05-18T07:49:04.339Z,20.56
2023-05-18T07:50:37.672Z,20.56
2023-05-18T07:52:10.849Z,20.47
2023-05-18T07:53:46.113Z,20.38
2023-05-18T07:55:19.464Z,20.30
2023-05-18T07:56:52.752Z,20.27
2023-05-18T07:58:26.058Z,20.15
2023-05-18T07:59:59.760Z,20.08
2023-05-18T08:01:32.899Z,19.86
2023-05-18T08:03:08.678Z,19.72
2023-05-18T08:04:41.936Z,19.56
2023-05-18T08:06:15.313Z,19.47
2023-05-18T08:07:48.464Z,19.50
2023-05-18T08:09:22.386Z,19.55
2023-05-18T08:10:55.537Z,19.43
2023-05-18T08:12:30.053Z,19.35
2023-05-18T08:14:03.265Z,19.17
2023-05-18T08:15:37.301Z,19.08
2023-05-18T08:17:10.656Z,18.99
2023-05-18T08:18:45.632Z,18.92
2023-05-18T08:20:19.255Z,18.79
2023-05-18T08:21:52.497Z,18.60
2023-05-18T08:23:26.146Z,18.37
2023-05-18T08:25:01.197Z,18.28
2023-05-18T08:26:34.520Z,18.08
2023-05-18T08:28:07.765Z,17.95
2023-05-18T08:29:41.219Z,17.82
2023-05-18T08:31:14.783Z,17.71
2023-05-18T08:32:47.983Z,17.56
2023-05-18T08:34:22.697Z,17.33
2023-05-18T08:35:56.741Z,17.17
2023-05-18T08:37:31.283Z,17.09
2023-05-18T08:39:05.625Z,16.98
2023-05-18T08:40:48.300Z,17.09
2023-05-18T08:42:27.603Z,17.11
2023-05-18T08:44:10.759Z,17.06
2023-05-18T08:45:51.596Z,16.96
2023-05-18T08:47:26.842Z,16.98
2023-05-18T08:49:02.132Z,16.96
2023-05-18T08:50:39.140Z,16.86
2023-05-18T08:52:19.150Z,16.71
2023-05-18T08:53:54.723Z,16.63
2023-05-18T08:55:29.539Z,16.58
2023-05-18T08:57:05.912Z,16.61
2023-05-18T08:58:45.113Z,16.63
2023-05-18T09:00:18.573Z,16.61
2023-05-18T09:01:52.467Z,16.63
2023-05-18T09:03:26.599Z,16.67
2023-05-18T09:05:00.474Z,16.71
2023-05-18T09:06:35.938Z,16.72
2023-05-18T09:08:10.877Z,16.74
2023-05-18T09:09:45.506Z,16.76
2023-05-18T09:11:19.738Z,16.74
2023-05-18T09:12:56.168Z,16.78
2023-05-18T09:14:30.511Z,16.80
2023-05-18T09:16:04.472Z,16.91
2023-05-18T09:17:37.779Z,16.99
2023-05-18T09:19:11.238Z,17.04
2023-05-18T09:20:44.500Z,17.13
2023-05-18T09:22:19.818Z,17.25
2023-05-18T09:23:53.028Z,17.30
2023-05-18T09:25:27.716Z,17.26
2023-05-18T09:27:01.068Z,17.25
2023-05-18T09:28:37.813Z,17.27
2023-05-18T09:30:12.607Z,17.23
2023-05-18T09:31:46.412Z,17.23
2023-05-18T09:33:21.945Z,17.29
2023-05-18T09:34:55.708Z,17.43
2023-05-18T09:36:30.509Z,17.51
2023-05-18T09:38:06.898Z,17.61
2023-05-18T09:39:40.098Z,17.63
2023-05-18T09:41:15.205Z,17.56
2023-05-18T09:42:49.890Z,17.77
2023-05-18T09:44:32.213Z,17.84
2023-05-18T09:46:08.991Z,17.83
2023-05-18T09:47:42.808Z,17.83
2023-05-18T09:49:23.552Z,18.04
2023-05-18T09:51:00.382Z,18.17
2023-05-18T09:52:42.319Z,18.28
2023-05-18T09:54:17.465Z,18.41
2023-05-18T09:55:51.286Z,18.53
2023-05-18T09:57:24.546Z,18.65
2023-05-18T09:58:57.801Z,18.45
2023-05-18T10:00:32.912Z,18.39
2023-05-18T10:02:08.846Z,18.47
2023-05-18T10:03:42.447Z,18.53
2023-05-18T10:05:22.127Z,18.64
2023-05-18T10:06:55.448Z,18.65
2023-05-18T10:08:28.669Z,18.63
2023-05-18T10:10:06.529Z,18.57
2023-05-18T10:11:41.898Z,18.56
2023-05-18T10:13:18.249Z,18.68
2023-05-18T10:14:51.585Z,18.73
2023-05-18T10:16:25.836Z,18.87
2023-05-18T10:18:01.062Z,18.87
2023-05-18T10:19:36.633Z,18.86
2023-05-18T10:21:12.682Z,18.79
2023-05-18T10:22:47.590Z,18.80
2023-05-18T10:24:22.963Z,18.82
2023-05-18T10:25:59.550Z,18.83
2023-05-18T10:27:36.594Z,18.88
2023-05-18T10:29:11.145Z,18.98
2023-05-18T10:30:45.249Z,19.10
2023-05-18T10:32:20.890Z,19.06
2023-05-18T10:33:56.336Z,19.15
2023-05-18T10:35:29.863Z,19.24
2023-05-18T10:37:05.366Z,19.19
2023-05-18T10:38:40.788Z,19.13
2023-05-18T10:40:15.285Z,19.18
2023-05-18T10:41:52.690Z,19.20
2023-05-18T10:43:28.169Z,19.20
2023-05-18T10:45:02.479Z,19.28
2023-05-18T10:46:37.168Z,19.47
2023-05-18T10:48:12.140Z,19.47
2023-05-18T10:49:48.624Z,19.56
2023-05-18T10:51:27.019Z,19.53
2023-05-18T10:53:01.005Z,19.45
2023-05-18T10:54:34.608Z,19.45
2023-05-18T10:56:09.075Z,19.50
2023-05-18T10:57:48.426Z,19.51
2023-05-18T10:59:23.993Z,19.53
2023-05-18T11:00:58.984Z,19.46
2023-05-18T11:02:32.739Z,19.36
2023-05-18T11:04:06.403Z,19.30
2023-05-18T11:05:40.183Z,19.31
2023-05-18T11:07:14.300Z,19.40
2023-05-18T11:08:49.957Z,19.46
2023-05-18T11:10:24.031Z,19.47
2023-05-18T11:11:58.854Z,19.41
2023-05-18T11:13:34.399Z,19.41
2023-05-18T11:15:09.048Z,19.37
2023-05-18T11:16:43.463Z,19.31
2023-05-18T11:18:16.956Z,19.24
2023-05-18T11:20:13.357Z,19.18
2023-05-18T11:21:54.359Z,19.09
2023-05-18T11:23:27.615Z,18.97
2023-05-18T11:25:05.117Z,19.00
2023-05-18T11:26:40.993Z,18.91
2023-05-18T11:28:14.869Z,18.75
2023-05-18T11:29:51.918Z,18.59
2023-05-18T11:31:44.991Z,18.63
2023-05-18T11:33:23.464Z,18.73
2023-05-18T11:34:57.341Z,18.82
2023-05-18T11:36:33.182Z,18.92
2023-05-18T11:38:10.127Z,18.91
2023-05-18T11:39:55.471Z,18.87
2023-05-18T11:41:34.357Z,18.71
2023-05-18T11:43:07.612Z,18.65
2023-05-18T11:44:41.537Z,18.59
2023-05-18T11:46:21.895Z,18.67
2023-05-18T11:48:02.994Z,18.72
2023-05-18T11:49:39.512Z,18.78
2023-05-18T11:51:12.161Z,18.82
2023-05-18T11:52:49.503Z,18.84
2023-05-18T11:54:24.107Z,18.88
2023-05-18T11:55:57.633Z,18.86
2023-05-18T11:57:41.041Z,18.67
2023-05-18T11:59:16.068Z,18.79
2023-05-18T12:00:50.615Z,18.71
2023-05-18T12:02:26.868Z,18.69
2023-05-18T12:04:01.042Z,18.75
2023-05-18T12:05:35.784Z,18.75
2023-05-18T12:07:08.098Z,18.73
2023-05-18T12:08:44.060Z,18.79
2023-05-18T12:10:17.727Z,18.92
2023-05-18T12:11:51.019Z,18.98
2023-05-18T12:13:24.956Z,18.98
2023-05-18T12:14:59.594Z,19.09
2023-05-18T12:16:33.507Z,19.20
2023-05-18T12:18:08.291Z,19.28
2023-05-18T12:19:45.568Z,19.24
2023-05-18T12:21:23.489Z,19.28
2023-05-18T12:22:57.266Z,19.27
2023-05-18T12:24:29.515Z,19.35
2023-05-18T12:26:02.692Z,19.27
2023-05-18T12:27:40.042Z,19.22
2023-05-18T12:29:19.791Z,19.30
2023-05-18T12:30:57.193Z,19.46
2023-05-18T12:32:31.904Z,19.59
2023-05-18T12:34:06.534Z,19.56
2023-05-18T12:35:39.874Z,19.50
2023-05-18T12:37:13.255Z,19.45
2023-05-18T12:38:50.650Z,19.44
2023-05-18T12:40:24.163Z,19.49
2023-05-18T12:42:10.203Z,19.57
2023-05-18T12:43:43.564Z,19.68
2023-05-18T12:45:16.774Z,19.60
2023-05-18T12:46:50.104Z,19.57
2023-05-18T12:48:26.651Z,19.63
2023-05-18T12:50:04.093Z,19.80
2023-05-18T12:51:38.860Z,19.99
2023-05-18T12:53:12.172Z,20.15
2023-05-18T12:54:58.739Z,20.23
2023-05-18T12:57:01.472Z,20.19
2023-05-18T12:58:35.451Z,20.16
2023-05-18T13:00:10.870Z,20.33
2023-05-18T13:01:44.583Z,20.45
2023-05-18T13:03:19.389Z,20.40
2023-05-18T13:05:03.482Z,20.44
2023-05-18T13:06:39.392Z,20.47
2023-05-18T13:08:16.386Z,20.46
2023-05-18T13:09:49.778Z,20.50
2023-05-18T13:11:27.764Z,20.54
2023-05-18T13:13:04.109Z,20.55
2023-05-18T13:14:39.564Z,20.60
2023-05-18T13:16:17.777Z,20.66
2023-05-18T13:17:58.781Z,20.73
2023-05-18T13:19:32.675Z,20.77
2023-05-18T13:21:08.757Z,20.83
2023-05-18T13:22:42.119Z,20.79
2023-05-18T13:24:15.669Z,20.70
2023-05-18T13:25:49.570Z,20.59
2023-05-18T13:27:22.713Z,20.53
2023-05-18T13:28:57.216Z,20.49
2023-05-18T13:30:30.633Z,20.43
2023-05-18T13:32:04.465Z,20.51
2023-05-18T13:33:36.765Z,20.59
2023-05-18T13:35:12.195Z,20.48
2023-05-18T13:36:46.844Z,20.51
2023-05-18T13:38:20.319Z,20.47
2023-05-18T13:39:53.614Z,20.56
2023-05-18T13:41:27.049Z,20.52
2023-05-18T13:43:00.276Z,20.54
2023-05-18T13:44:33.754Z,20.46
2023-05-18T13:46:07.100Z,20.36
2023-05-18T13:47:41.492Z,20.30
2023-05-18T13:49:14.666Z,20.15
2023-05-18T13:50:48.202Z,20.08
2023-05-18T13:52:22.787Z,20.02
2023-05-18T13:53:56.083Z,20.00
2023-05-18T13:55:29.582Z,19.86
2023-05-18T13:57:03.585Z,19.81
2023-05-18T13:58:37.171Z,19.69
2023-05-18T14:00:13.099Z,19.65
2023-05-18T14:01:47.541Z,19.57
2023-05-18T14:03:21.311Z,19.45
2023-05-18T14:04:54.555Z,19.36
2023-05-18T14:06:28.040Z,19.42
2023-05-18T14:08:02.672Z,19.42
2023-05-18T14:09:36.097Z,19.34
2023-05-18T14:11:09.280Z,19.25
2023-05-18T14:12:43.572Z,19.12
2023-05-18T14:14:16.907Z,19.00
2023-05-18T14:15:50.272Z,19.01
2023-05-18T14:17:23.568Z,19.01
2023-05-18T14:18:56.833Z,19.12
2023-05-18T14:20:31.059Z,19.16
2023-05-18T14:22:04.866Z,19.16
2023-05-18T14:23:39.592Z,19.18
2023-05-18T14:25:12.941Z,19.22
2023-05-18T14:26:46.073Z,19.24
2023-05-18T14:28:19.363Z,19.23
2023-05-18T14:29:52.733Z,19.19
2023-05-18T14:31:25.293Z,19.21
2023-05-18T14:32:58.577Z,19.14
2023-05-18T14:34:31.968Z,19.19
2023-05-18T14:36:05.810Z,19.30
2023-05-18T14:37:39.699Z,19.33
2023-05-18T14:39:14.287Z,19.37
2023-05-18T14:40:47.561Z,19.38
2023-05-18T14:42:21.116Z,19.35
2023-05-18T14:43:54.465Z,19.29
2023-05-18T14:45:27.694Z,19.27
2023-05-18T14:47:00.008Z,19.23
2023-05-18T14:48:33.358Z,19.24
2023-05-18T14:50:07.628Z,19.39
2023-05-18T14:51:40.776Z,19.46
2023-05-18T14:53:14.271Z,19.49
2023-05-18T14:54:49.017Z,19.58
2023-05-18T14:56:22.823Z,19.57
2023-05-18T14:57:56.126Z,19.56
2023-05-18T14:59:30.867Z,19.57
2023-05-18T15:01:04.158Z,19.53
2023-05-18T15:02:37.699Z,19.46
2023-05-18T15:04:11.117Z,19.39
2023-05-18T15:05:45.834Z,19.27
2023-05-18T15:07:19.312Z,19.26
2023-05-18T15:08:55.150Z,19.16
2023-05-18T15:10:29.891Z,19.07
2023-05-18T15:12:03.360Z,19.03
2023-05-18T15:13:36.611Z,18.96
2023-05-18T15:15:11.024Z,18.94
2023-05-18T15:16:44.253Z,18.97
2023-05-18T15:18:17.724Z,19.02
2023-05-18T15:19:51.027Z,19.06
2023-05-18T15:21:24.301Z,19.12
2023-05-18T15:22:57.498Z,19.12
2023-05-18T15:24:30.944Z,19.13
2023-05-18T15:26:08.744Z,19.12
2023-05-18T15:27:42.680Z,19.09
2023-05-18T15:29:15.892Z,19.09
2023-05-18T15:30:49.170Z,19.04
2023-05-18T15:32:22.397Z,19.01
2023-05-18T15:33:55.706Z,19.01
2023-05-18T15:35:29.044Z,18.95
2023-05-18T15:37:02.748Z,18.87
2023-05-18T15:38:36.112Z,18.83
2023-05-18T15:40:10.167Z,18.68
2023-05-18T15:41:44.684Z,18.69
2023-05-18T15:43:17.943Z,18.70
2023-05-18T15:44:51.496Z,18.69
2023-05-18T15:46:24.937Z,18.67
2023-05-18T15:47:58.205Z,18.63
2023-05-18T15:49:31.717Z,18.59
2023-05-18T15:51:05.120Z,18.51
2023-05-18T15:52:38.333Z,18.43
2023-05-18T15:54:11.675Z,18.37
2023-05-18T15:55:45.183Z,18.30
2023-05-18T15:57:20.120Z,18.34
2023-05-18T15:58:53.506Z,18.36
2023-05-18T16:00:26.790Z,18.34
2023-05-18T16:02:00.151Z,18.33
2023-05-18T16:03:33.749Z,18.31
2023-05-18T16:05:07.822Z,18.30
2023-05-18T16:06:41.230Z,18.25
2023-05-18T16:08:15.203Z,18.14
2023-05-18T16:09:48.460Z,18.01
2023-05-18T16:11:21.835Z,17.92
2023-05-18T16:13:00.504Z,17.84
2023-05-18T16:14:33.840Z,17.75
2023-05-18T16:16:12.002Z,17.77
2023-05-18T16:17:45.265Z,17.74
2023-05-18T16:19:18.757Z,17.75
2023-05-18T16:20:52.027Z,17.74
2023-05-18T16:22:25.458Z,17.65
2023-05-18T16:23:58.803Z,17.70
2023-05-18T16:25:32.839Z,17.74
2023-05-18T16:27:06.494Z,17.74
2023-05-18T16:28:41.576Z,17.74
2023-05-18T16:30:15.054Z,17.76
2023-05-18T16:31:48.281Z,17.79
2023-05-18T16:33:21.659Z,17.78
2023-05-18T16:34:54.956Z,17.73
2023-05-18T16:36:28.369Z,17.75
2023-05-18T16:38:01.495Z,17.72
2023-05-18T16:39:34.753Z,17.71
2023-05-18T16:41:08.193Z,17.70
2023-05-18T16:42:41.559Z,17.71
2023-05-18T16:44:16.079Z,17.71
2023-05-18T16:45:49.377Z,17.68
2023-05-18T16:47:23.033Z,17.66
2023-05-18T16:48:56.325Z,17.60
2023-05-18T16:50:29.761Z,17.55
2023-05-18T16:52:03.805Z,17.47
2023-05-18T16:53:37.545Z,17.41
2023-05-18T16:55:11.187Z,17.45
2023-05-18T16:56:44.306Z,17.48
2023-05-18T16:58:17.623Z,17.49
2023-05-18T16:59:52.630Z,17.48
2023-05-18T17:01:28.452Z,17.48
2023-05-18T17:03:03.517Z,17.46
2023-05-18T17:04:37.181Z,17.47
2023-05-18T17:06:10.687Z,17.49
2023-05-18T17:07:44.197Z,17.48
2023-05-18T17:09:20.518Z,17.47
2023-05-18T17:10:53.940Z,17.45
2023-05-18T17:12:27.310Z,17.44
2023-05-18T17:14:01.743Z,17.46
2023-05-18T17:15:36.581Z,17.44
2023-05-18T17:17:10.209Z,17.47
2023-05-18T17:18:43.471Z,17.36
2023-05-18T17:20:16.843Z,17.39
2023-05-18T17:21:50.079Z,17.45
2023-05-18T17:23:23.503Z,17.46
2023-05-18T17:24:56.782Z,17.39
2023-05-18T17:26:33.381Z,17.40
2023-05-18T17:28:06.907Z,17.39
2023-05-18T17:29:40.144Z,17.38
2023-05-18T17:31:15.009Z,17.40
2023-05-18T17:32:50.638Z,17.37
2023-05-18T17:34:26.792Z,17.31
2023-05-18T17:36:00.168Z,17.35
2023-05-18T17:37:33.557Z,17.36
2023-05-18T17:39:07.042Z,17.35
2023-05-18T17:40:40.237Z,17.31
2023-05-18T17:42:13.572Z,17.27
2023-05-18T17:43:46.913Z,17.28
2023-05-18T17:45:20.244Z,17.25
2023-05-18T17:46:54.917Z,17.24
2023-05-18T17:48:28.348Z,17.26
2023-05-18T17:50:01.701Z,17.29
2023-05-18T17:51:35.079Z,17.32
2023-05-18T17:53:08.274Z,17.34
2023-05-18T17:54:41.624Z,17.28
2023-05-18T17:56:15.194Z,17.26
2023-05-18T17:57:48.594Z,17.26
2023-05-18T17:59:21.750Z,17.25
2023-05-18T18:00:55.014Z,17.22
2023-05-18T18:02:29.627Z,17.23
2023-05-18T18:04:02.974Z,17.21
2023-05-18T18:05:36.192Z,17.14
2023-05-18T18:07:09.465Z,17.16
2023-05-18T18:08:43.049Z,17.14
2023-05-18T18:10:16.408Z,17.14
2023-05-18T18:11:49.611Z,17.19
2023-05-18T18:13:23.347Z,17.15
2023-05-18T18:14:55.949Z,17.15
2023-05-18T18:16:29.575Z,17.16
2023-05-18T18:18:04.207Z,17.11
2023-05-18T18:19:37.501Z,17.10
2023-05-18T18:21:10.913Z,17.06
2023-05-18T18:22:44.333Z,17.13
2023-05-18T18:24:17.568Z,17.13
2023-05-18T18:25:50.932Z,17.13
2023-05-18T18:27:24.207Z,17.05
2023-05-18T18:28:57.565Z,17.00
2023-05-18T18:30:31.157Z,16.96
2023-05-18T18:32:04.888Z,17.00
2023-05-18T18:33:40.582Z,17.04
2023-05-18T18:35:13.951Z,17.05
2023-05-18T18:36:47.877Z,17.04
2023-05-18T18:38:21.307Z,17.07
2023-05-18T18:39:54.835Z,17.07
2023-05-18T18:41:28.176Z,17.02
2023-05-18T18:43:01.394Z,17.01
2023-05-18T18:44:34.647Z,17.04
2023-05-18T18:46:08.081Z,17.04
2023-05-18T18:47:41.356Z,17.06
2023-05-18T18:49:18.017Z,17.07
2023-05-18T18:50:51.306Z,17.06
2023-05-18T18:52:24.624Z,17.07
2023-05-18T18:53:57.955Z,17.07
2023-05-18T18:55:31.495Z,17.11
2023-05-18T18:57:05.495Z,17.11
2023-05-18T18:58:40.792Z,17.13
2023-05-18T19:00:17.153Z,17.09
2023-05-18T19:01:50.933Z,17.07
2023-05-18T19:03:24.378Z,17.09
2023-05-18T19:04:59.316Z,17.09
2023-05-18T19:06:33.281Z,17.09
2023-05-18T19:08:06.977Z,17.05
2023-05-18T19:09:40.328Z,16.99
2023-05-18T19:11:13.632Z,16.95
2023-05-18T19:12:47.891Z,16.88
2023-05-18T19:14:20.988Z,16.94
2023-05-18T19:15:54.359Z,16.92
2023-05-18T19:17:27.928Z,16.94
2023-05-18T19:19:08.644Z,16.95
2023-05-18T19:20:43.269Z,16.92
2023-05-18T19:22:16.620Z,16.88
2023-05-18T19:23:50.002Z,16.85
2023-05-18T19:25:24.705Z,16.80
2023-05-18T19:26:58.007Z,16.79
2023-05-18T19:28:31.350Z,16.73
2023-05-18T19:30:05.362Z,16.74
2023-05-18T19:31:38.767Z,16.74
2023-05-18T19:33:11.970Z,16.70
2023-05-18T19:34:45.592Z,16.68
2023-05-18T19:36:20.328Z,16.70
2023-05-18T19:37:53.797Z,16.73
2023-05-18T19:39:27.139Z,16.70
2023-05-18T19:41:00.547Z,16.70
2023-05-18T19:42:34.082Z,16.69
2023-05-18T19:44:06.487Z,16.71
2023-05-18T19:45:39.803Z,16.74
2023-05-18T19:47:13.172Z,16.77
2023-05-18T19:48:46.838Z,16.75
2023-05-18T19:50:20.346Z,16.74
2023-05-18T19:51:55.023Z,16.72
2023-05-18T19:53:28.253Z,16.67
2023-05-18T19:55:02.478Z,16.63
2023-05-18T19:56:37.023Z,16.62
2023-05-18T19:58:10.309Z,16.61
2023-05-18T19:59:43.630Z,16.61
2023-05-18T20:01:18.728Z,16.52
2023-05-18T20:02:52.094Z,16.55
2023-05-18T20:04:28.450Z,16.55
2023-05-18T20:06:02.164Z,16.60
2023-05-18T20:07:36.991Z,16.59
2023-05-18T20:09:10.776Z,16.49
2023-05-18T20:10:44.580Z,16.47
2023-05-18T20:12:17.799Z,16.48
2023-05-18T20:13:51.143Z,16.49
2023-05-18T20:15:24.476Z,16.49
2023-05-18T20:16:58.684Z,16.48
2023-05-18T20:18:35.061Z,16.49
2023-05-18T20:20:09.866Z,16.55
2023-05-18T20:21:43.237Z,16.54